Rimini / Miramare - Federico Fellini International Airport LIPR

Flugplatz Daten

Name: Rimini / Miramare - Federico Fellini International Airport

Ident: LIPR

Lat: 44,02030182

Long: 12,61170006

Platzhöhe: 40 ft

IataCode: RMI

City: Rimini

Homepage: http://www.riminiairport.com/english/

Metar

2021/08/05 14:20
LIPR 051420Z 25013KT 210V270 9999 FEW050 31/12 Q1006

Taf

2021/08/05 12:21
TAF LIPR 051100Z 0512/0612 25014KT 9999 FEW040
BECMG 0512/0514 08010KT
TEMPO 0512/0519 TSRA
BECMG 0516/0519 23007KT
BECMG 0610/0612 10010KT
Gewünschte Webcam nicht vorhanden? Dann fügen Sie eine hinzu. Sie wird dann so schnell wie möglich freigeschaltet
Url: Title: